createdAt,value
2022-11-21T00:00:37.131Z,3.40
2022-11-21T00:02:38.788Z,3.40
2022-11-21T00:04:40.904Z,3.40
2022-11-21T00:06:42.582Z,3.40
2022-11-21T00:08:44.876Z,3.40
2022-11-21T00:10:47.016Z,3.40
2022-11-21T00:12:52.870Z,3.40
2022-11-21T00:14:54.549Z,3.40
2022-11-21T00:16:57.628Z,3.40
2022-11-21T00:18:59.335Z,3.40
2022-11-21T00:21:12.349Z,3.40
2022-11-21T00:23:14.058Z,3.40
2022-11-21T00:25:16.452Z,3.40
2022-11-21T00:27:18.109Z,3.50
2022-11-21T00:29:20.837Z,3.50
2022-11-21T00:31:24.075Z,3.50
2022-11-21T00:33:25.804Z,3.50
2022-11-21T00:35:27.851Z,3.50
2022-11-21T00:37:29.551Z,3.40
2022-11-21T00:39:31.226Z,3.40
2022-11-21T00:41:32.922Z,3.40
2022-11-21T00:43:35.007Z,3.40
2022-11-21T00:45:36.767Z,3.30
2022-11-21T00:47:38.474Z,3.30
2022-11-21T00:49:40.140Z,3.30
2022-11-21T00:51:41.929Z,3.30
2022-11-21T00:53:43.752Z,3.30
2022-11-21T00:55:45.619Z,3.30
2022-11-21T00:57:47.437Z,3.30
2022-11-21T00:59:49.185Z,3.20
2022-11-21T01:01:50.841Z,3.20
2022-11-21T01:03:52.494Z,3.20
2022-11-21T01:05:54.280Z,3.10
2022-11-21T01:07:55.900Z,3.10
2022-11-21T01:09:57.622Z,3.10
2022-11-21T01:11:59.308Z,3.10
2022-11-21T01:14:01.066Z,3.10
2022-11-21T01:16:08.449Z,3.20
2022-11-21T01:18:10.180Z,3.20
2022-11-21T01:20:12.103Z,3.20
2022-11-21T01:22:13.754Z,3.20
2022-11-21T01:24:15.374Z,3.20
2022-11-21T01:26:20.196Z,3.20
2022-11-21T01:28:21.861Z,3.20
2022-11-21T01:30:23.475Z,3.30
2022-11-21T01:32:25.391Z,3.20
2022-11-21T01:34:27.184Z,3.20
2022-11-21T01:36:32.073Z,3.20
2022-11-21T01:38:34.284Z,3.20
2022-11-21T01:40:40.141Z,3.20
2022-11-21T01:43:04.084Z,3.20
2022-11-21T01:45:44.183Z,3.30
2022-11-21T01:47:45.841Z,3.30
2022-11-21T01:49:48.359Z,3.30
2022-11-21T01:52:02.100Z,3.30
2022-11-21T01:54:24.219Z,3.20
2022-11-21T01:56:27.185Z,3.20
2022-11-21T01:58:30.671Z,3.20
2022-11-21T02:00:39.610Z,3.20
2022-11-21T02:02:47.840Z,3.20
2022-11-21T02:04:51.983Z,3.20
2022-11-21T02:06:53.665Z,3.20
2022-11-21T02:08:57.627Z,3.10
2022-11-21T02:11:25.555Z,3.10
2022-11-21T02:13:28.026Z,3.10
2022-11-21T02:15:30.139Z,3.00
2022-11-21T02:17:32.937Z,3.00
2022-11-21T02:19:52.171Z,3.00
2022-11-21T02:22:07.810Z,2.90
2022-11-21T02:24:46.001Z,2.90
2022-11-21T02:26:48.887Z,2.90
2022-11-21T02:28:50.683Z,2.90
2022-11-21T02:30:52.574Z,2.90
2022-11-21T02:32:55.052Z,2.90
2022-11-21T02:34:56.960Z,2.90
2022-11-21T02:37:00.377Z,2.90
2022-11-21T02:39:02.863Z,2.90
2022-11-21T02:41:11.886Z,2.90
2022-11-21T02:43:25.242Z,2.90
2022-11-21T02:45:29.299Z,2.90
2022-11-21T02:47:32.483Z,2.90
2022-11-21T02:50:02.672Z,2.90
2022-11-21T02:52:04.500Z,2.90
2022-11-21T02:54:06.160Z,2.90
2022-11-21T02:56:07.817Z,2.90
2022-11-21T02:58:10.455Z,2.90
2022-11-21T03:00:12.605Z,2.90
2022-11-21T03:02:14.308Z,2.90
2022-11-21T03:04:15.980Z,2.90
2022-11-21T03:06:17.670Z,2.90
2022-11-21T03:08:19.300Z,2.90
2022-11-21T03:10:21.021Z,2.90
2022-11-21T03:12:22.637Z,2.90
2022-11-21T03:14:24.301Z,2.90
2022-11-21T03:16:26.052Z,2.90
2022-11-21T03:18:27.667Z,2.90
2022-11-21T03:20:34.461Z,2.90
2022-11-21T03:22:36.251Z,2.80
2022-11-21T03:24:37.893Z,2.90
2022-11-21T03:26:39.587Z,2.90
2022-11-21T03:28:42.410Z,2.90
2022-11-21T03:30:44.133Z,2.90
2022-11-21T03:32:45.895Z,2.90
2022-11-21T03:34:47.613Z,2.90
2022-11-21T03:36:49.313Z,2.90
2022-11-21T03:38:51.207Z,2.90
2022-11-21T03:40:52.927Z,2.90
2022-11-21T03:42:54.671Z,2.90
2022-11-21T03:44:56.696Z,2.90
2022-11-21T03:46:58.426Z,2.90
2022-11-21T03:49:00.160Z,2.90
2022-11-21T03:51:01.959Z,2.90
2022-11-21T03:53:03.595Z,2.90
2022-11-21T03:55:05.729Z,2.90
2022-11-21T03:57:07.407Z,2.90
2022-11-21T03:59:09.025Z,2.90
2022-11-21T04:01:13.033Z,2.90
2022-11-21T04:03:14.760Z,2.90
2022-11-21T04:05:16.462Z,2.90
2022-11-21T04:07:18.161Z,2.90
2022-11-21T04:09:19.856Z,3.00
2022-11-21T04:11:23.456Z,3.00
2022-11-21T04:13:25.167Z,3.00
2022-11-21T04:15:26.897Z,3.00
2022-11-21T04:17:28.928Z,3.00
2022-11-21T04:19:30.667Z,3.00
2022-11-21T04:21:32.376Z,3.00
2022-11-21T04:23:34.599Z,3.00
2022-11-21T04:25:36.295Z,3.00
2022-11-21T04:27:37.997Z,3.00
2022-11-21T04:29:39.676Z,3.00
2022-11-21T04:31:41.301Z,3.00
2022-11-21T04:33:42.980Z,3.00
2022-11-21T04:35:45.909Z,3.00
2022-11-21T04:37:47.892Z,3.00
2022-11-21T04:39:49.556Z,3.00
2022-11-21T04:41:51.225Z,3.00
2022-11-21T04:43:52.919Z,3.10
2022-11-21T04:45:54.579Z,3.00
2022-11-21T04:47:56.329Z,3.10
2022-11-21T04:49:57.959Z,3.10
2022-11-21T04:51:59.840Z,3.10
2022-11-21T04:54:01.529Z,3.10
2022-11-21T04:56:06.839Z,3.10
2022-11-21T04:58:08.753Z,3.10
2022-11-21T05:00:10.980Z,3.10
2022-11-21T05:02:12.694Z,3.10
2022-11-21T05:04:14.571Z,3.10
2022-11-21T05:06:16.424Z,3.10
2022-11-21T05:08:18.044Z,3.10
2022-11-21T05:10:19.702Z,3.10
2022-11-21T05:12:39.996Z,3.10
2022-11-21T05:14:41.717Z,3.10
2022-11-21T05:16:43.403Z,3.20
2022-11-21T05:18:45.115Z,3.20
2022-11-21T05:20:47.046Z,3.20
2022-11-21T05:22:52.039Z,3.20
2022-11-21T05:24:53.943Z,3.20
2022-11-21T05:26:55.640Z,3.20
2022-11-21T05:28:57.395Z,3.20
2022-11-21T05:30:59.061Z,3.20
2022-11-21T05:33:00.820Z,3.20
2022-11-21T05:35:02.604Z,3.20
2022-11-21T05:37:04.661Z,3.20
2022-11-21T05:39:06.277Z,3.30
2022-11-21T05:41:07.913Z,3.30
2022-11-21T05:43:30.519Z,3.30
2022-11-21T05:45:32.123Z,3.30
2022-11-21T05:47:33.884Z,3.30
2022-11-21T05:49:35.499Z,3.30
2022-11-21T05:51:37.230Z,3.30
2022-11-21T05:53:39.072Z,3.30
2022-11-21T05:55:40.820Z,3.30
2022-11-21T05:57:42.553Z,3.30
2022-11-21T05:59:44.196Z,3.30
2022-11-21T06:02:04.613Z,3.30
2022-11-21T06:04:07.064Z,3.30
2022-11-21T06:06:19.661Z,3.30
2022-11-21T06:08:23.961Z,3.30
2022-11-21T06:10:25.782Z,3.30
2022-11-21T06:12:27.529Z,3.30
2022-11-21T06:14:29.378Z,3.30
2022-11-21T06:16:31.255Z,3.30
2022-11-21T06:18:37.955Z,3.30
2022-11-21T06:20:39.573Z,3.30
2022-11-21T06:22:41.326Z,3.30
2022-11-21T06:24:43.220Z,3.30
2022-11-21T06:26:45.051Z,3.30
2022-11-21T06:28:47.048Z,3.30
2022-11-21T06:30:51.790Z,3.20
2022-11-21T06:32:53.572Z,3.20
2022-11-21T06:34:55.302Z,3.10
2022-11-21T06:36:57.143Z,3.10
2022-11-21T06:38:58.964Z,3.00
2022-11-21T06:41:05.687Z,2.90
2022-11-21T06:43:07.332Z,2.90
2022-11-21T06:45:09.428Z,2.90
2022-11-21T06:47:11.178Z,3.00
2022-11-21T06:49:12.922Z,3.00
2022-11-21T06:51:23.009Z,3.00
2022-11-21T06:53:24.740Z,3.10
2022-11-21T06:55:27.631Z,3.10
2022-11-21T06:57:29.342Z,3.10
2022-11-21T06:59:31.035Z,3.10
2022-11-21T07:01:33.044Z,3.10
2022-11-21T07:03:35.661Z,3.20
2022-11-21T07:05:37.374Z,3.20
2022-11-21T07:07:39.163Z,3.20
2022-11-21T07:09:40.909Z,3.20
2022-11-21T07:11:43.126Z,3.20
2022-11-21T07:13:45.055Z,3.20
2022-11-21T07:15:48.089Z,3.20
2022-11-21T07:17:49.826Z,3.20
2022-11-21T07:19:51.455Z,3.30
2022-11-21T07:21:53.122Z,3.30
2022-11-21T07:23:54.795Z,3.30
2022-11-21T07:26:01.247Z,3.40
2022-11-21T07:28:05.409Z,3.60
2022-11-21T07:30:07.892Z,4.00
2022-11-21T07:32:09.553Z,4.20
2022-11-21T07:34:11.380Z,4.30
2022-11-21T07:36:13.532Z,4.20
2022-11-21T07:38:15.279Z,4.10
2022-11-21T07:40:17.598Z,3.90
2022-11-21T07:42:19.269Z,4.00
2022-11-21T07:44:20.942Z,4.10
2022-11-21T07:46:22.601Z,4.10
2022-11-21T07:48:24.308Z,4.20
2022-11-21T07:50:26.719Z,4.20
2022-11-21T07:52:30.266Z,4.40
2022-11-21T07:54:31.981Z,4.50
2022-11-21T07:56:33.743Z,4.50
2022-11-21T07:58:35.894Z,4.50
2022-11-21T08:00:39.788Z,4.30
2022-11-21T08:02:41.412Z,4.20
2022-11-21T08:04:43.059Z,4.30
2022-11-21T08:06:44.740Z,4.30
2022-11-21T08:08:46.486Z,4.30
2022-11-21T08:10:48.372Z,4.40
2022-11-21T08:12:50.174Z,4.40
2022-11-21T08:14:51.923Z,4.50
2022-11-21T08:16:53.686Z,4.60
2022-11-21T08:18:55.384Z,4.70
2022-11-21T08:20:57.111Z,5.00
2022-11-21T08:22:58.791Z,5.30
2022-11-21T08:25:00.519Z,5.40
2022-11-21T08:27:02.292Z,5.30
2022-11-21T08:29:03.971Z,5.20
2022-11-21T08:31:06.576Z,5.10
2022-11-21T08:33:08.335Z,4.90
2022-11-21T08:35:10.125Z,4.80
2022-11-21T08:37:11.833Z,5.50
2022-11-21T08:39:13.451Z,6.50
2022-11-21T08:41:33.696Z,7.70
2022-11-21T08:43:35.357Z,8.50
2022-11-21T08:45:39.249Z,9.00
2022-11-21T08:47:41.430Z,9.20
2022-11-21T08:49:43.068Z,9.00
2022-11-21T08:51:49.285Z,8.70
2022-11-21T08:53:50.963Z,8.60
2022-11-21T08:55:54.744Z,8.30
2022-11-21T08:57:56.488Z,9.00
2022-11-21T08:59:58.128Z,9.90
2022-11-21T09:01:59.823Z,10.00
2022-11-21T09:04:01.561Z,10.70
2022-11-21T09:06:03.355Z,10.90
2022-11-21T09:08:05.111Z,11.30
2022-11-21T09:10:07.743Z,11.60
2022-11-21T09:12:09.432Z,11.10
2022-11-21T09:14:30.259Z,10.90
2022-11-21T09:16:50.708Z,10.50
2022-11-21T09:18:53.296Z,9.90
2022-11-21T09:20:54.949Z,8.90
2022-11-21T09:22:56.639Z,8.30
2022-11-21T09:24:58.507Z,7.90
2022-11-21T09:27:00.370Z,7.60
2022-11-21T09:29:02.031Z,7.50
2022-11-21T09:31:04.666Z,7.30
2022-11-21T09:33:08.653Z,7.30
2022-11-21T09:35:10.368Z,7.70
2022-11-21T09:37:12.268Z,8.60
2022-11-21T09:39:13.926Z,9.90
2022-11-21T09:41:54.865Z,10.10
2022-11-21T09:44:17.269Z,9.60
2022-11-21T09:46:26.636Z,8.80
2022-11-21T09:48:32.775Z,8.00
2022-11-21T09:50:50.845Z,7.60
2022-11-21T09:53:07.302Z,7.30
2022-11-21T09:55:21.756Z,7.10
2022-11-21T09:57:29.490Z,6.90
2022-11-21T09:59:39.065Z,6.90
2022-11-21T10:01:40.833Z,6.80
2022-11-21T10:03:47.386Z,6.80
2022-11-21T10:06:04.720Z,6.80
2022-11-21T10:08:20.039Z,6.90
2022-11-21T10:10:55.617Z,7.10
2022-11-21T10:13:43.329Z,7.30
2022-11-21T10:16:01.161Z,7.50
2022-11-21T10:18:23.502Z,8.40
2022-11-21T10:21:07.006Z,10.20
2022-11-21T10:23:20.728Z,11.60
2022-11-21T10:25:30.568Z,11.60
2022-11-21T10:27:39.114Z,11.00
2022-11-21T10:30:03.455Z,10.40
2022-11-21T10:32:19.760Z,9.60
2022-11-21T10:34:27.007Z,8.90
2022-11-21T10:36:37.921Z,8.60
2022-11-21T10:38:43.251Z,8.30
2022-11-21T10:40:48.946Z,8.50
2022-11-21T10:43:28.206Z,8.60
2022-11-21T10:45:29.870Z,8.40
2022-11-21T10:47:33.896Z,8.00
2022-11-21T10:49:35.723Z,7.80
2022-11-21T10:51:56.029Z,7.80
2022-11-21T10:54:30.994Z,8.60
2022-11-21T10:56:35.766Z,8.90
2022-11-21T10:58:44.440Z,9.60
2022-11-21T11:00:58.272Z,10.30
2022-11-21T11:03:06.277Z,10.00
2022-11-21T11:05:17.022Z,9.70
2022-11-21T11:07:25.507Z,9.20
2022-11-21T11:09:33.689Z,8.90
2022-11-21T11:11:35.399Z,8.60
2022-11-21T11:13:58.910Z,8.50
2022-11-21T11:16:16.378Z,8.60
2022-11-21T11:18:22.303Z,8.70
2022-11-21T11:20:43.816Z,9.00
2022-11-21T11:22:45.519Z,8.80
2022-11-21T11:24:57.656Z,8.60
2022-11-21T11:27:03.633Z,8.20
2022-11-21T11:29:14.410Z,8.10
2022-11-21T11:31:16.280Z,7.90
2022-11-21T11:33:31.841Z,7.70
2022-11-21T11:35:35.610Z,7.50
2022-11-21T11:37:41.948Z,7.30
2022-11-21T11:40:05.435Z,6.90
2022-11-21T11:42:48.245Z,6.60
2022-11-21T11:45:31.171Z,6.40
2022-11-21T11:47:41.833Z,6.40
2022-11-21T11:50:10.304Z,7.00
2022-11-21T11:52:13.997Z,8.00
2022-11-21T11:54:49.534Z,8.60
2022-11-21T11:56:51.413Z,9.00
2022-11-21T11:59:00.201Z,9.20
2022-11-21T12:01:17.666Z,9.30
2022-11-21T12:03:26.725Z,9.10
2022-11-21T12:05:30.778Z,8.70
2022-11-21T12:08:38.977Z,8.70
2022-11-21T12:10:06.823Z,8.80
2022-11-21T12:12:27.445Z,8.70
2022-11-21T12:15:08.373Z,8.60
2022-11-21T12:17:11.714Z,8.60
2022-11-21T12:19:16.923Z,8.70
2022-11-21T12:21:19.895Z,9.00
2022-11-21T12:23:25.088Z,9.40
2022-11-21T12:25:33.020Z,9.60
2022-11-21T12:27:34.995Z,9.80
2022-11-21T12:29:53.808Z,10.10
2022-11-21T12:32:26.589Z,10.10
2022-11-21T12:34:47.203Z,10.30
2022-11-21T12:37:19.337Z,10.50
2022-11-21T12:39:45.719Z,10.60
2022-11-21T12:42:08.260Z,10.40
2022-11-21T12:44:28.818Z,10.70
2022-11-21T12:46:56.635Z,10.50
2022-11-21T12:49:35.128Z,9.50
2022-11-21T12:52:15.183Z,9.10
2022-11-21T12:54:32.246Z,8.50
2022-11-21T12:57:13.947Z,8.20
2022-11-21T12:59:16.108Z,7.90
2022-11-21T13:01:49.443Z,7.90
2022-11-21T13:04:28.234Z,7.90
2022-11-21T13:06:37.515Z,8.10
2022-11-21T13:08:40.860Z,8.70
2022-11-21T13:11:15.675Z,9.50
2022-11-21T13:13:34.980Z,10.40
2022-11-21T13:16:08.683Z,10.40
2022-11-21T13:18:23.143Z,10.60
2022-11-21T13:20:51.997Z,10.90
2022-11-21T13:22:58.988Z,11.50
2022-11-21T13:25:01.921Z,11.60
2022-11-21T13:27:03.793Z,12.10
2022-11-21T13:29:13.891Z,12.60
2022-11-21T13:31:32.568Z,12.90
2022-11-21T13:33:39.708Z,12.80
2022-11-21T13:35:50.769Z,12.30
2022-11-21T13:37:55.313Z,11.60
2022-11-21T13:40:31.952Z,11.20
2022-11-21T13:43:32.047Z,10.60
2022-11-21T13:45:48.274Z,10.00
2022-11-21T13:48:03.649Z,10.40
2022-11-21T13:50:19.381Z,10.90
2022-11-21T13:52:29.970Z,11.30
2022-11-21T13:55:00.378Z,11.10
2022-11-21T13:57:20.599Z,11.60
2022-11-21T13:59:40.407Z,11.90
2022-11-21T14:02:11.553Z,12.00
2022-11-21T14:04:26.520Z,11.30
2022-11-21T14:06:44.758Z,10.80
2022-11-21T14:09:13.953Z,10.20
2022-11-21T14:11:36.240Z,9.60
2022-11-21T14:13:38.967Z,9.30
2022-11-21T14:16:01.514Z,9.00
2022-11-21T14:18:03.781Z,8.90
2022-11-21T14:20:19.397Z,8.60
2022-11-21T14:22:59.047Z,8.40
2022-11-21T14:25:05.976Z,8.30
2022-11-21T14:27:18.779Z,8.10
2022-11-21T14:29:27.679Z,8.00
2022-11-21T14:31:47.256Z,7.80
2022-11-21T14:33:49.467Z,7.80
2022-11-21T14:35:59.514Z,7.70
2022-11-21T14:38:05.404Z,7.60
2022-11-21T14:40:12.150Z,7.50
2022-11-21T14:42:16.473Z,7.30
2022-11-21T14:44:19.774Z,7.10
2022-11-21T14:46:21.617Z,7.00
2022-11-21T14:48:28.443Z,6.90
2022-11-21T14:50:34.549Z,6.80
2022-11-21T14:52:36.737Z,6.60
2022-11-21T14:55:28.684Z,6.50
2022-11-21T14:57:27.379Z,6.30
2022-11-21T14:59:36.071Z,6.20
2022-11-21T15:01:40.936Z,6.10
2022-11-21T15:04:06.157Z,6.00
2022-11-21T15:06:11.276Z,5.80
2022-11-21T15:08:44.421Z,5.70
2022-11-21T15:10:36.026Z,5.60
2022-11-21T15:13:02.964Z,5.60
2022-11-21T15:15:18.990Z,5.50
2022-11-21T15:17:23.283Z,5.50
2022-11-21T15:19:27.621Z,5.40
2022-11-21T15:21:30.151Z,5.30
2022-11-21T15:23:34.018Z,5.30
2022-11-21T15:25:47.201Z,5.40
2022-11-21T15:27:50.876Z,5.30
2022-11-21T15:30:24.776Z,5.30
2022-11-21T15:32:26.610Z,5.30
2022-11-21T15:34:35.297Z,5.20
2022-11-21T15:37:26.946Z,5.20
2022-11-21T15:39:28.663Z,5.10
2022-11-21T15:41:35.150Z,5.00
2022-11-21T15:43:43.068Z,4.90
2022-11-21T15:45:44.762Z,4.90
2022-11-21T15:47:47.040Z,4.80
2022-11-21T15:49:48.805Z,4.70
2022-11-21T15:52:06.621Z,4.70
2022-11-21T15:54:14.673Z,4.60
2022-11-21T15:56:22.750Z,4.50
2022-11-21T15:58:24.817Z,4.50
2022-11-21T16:00:26.571Z,4.40
2022-11-21T16:02:28.307Z,4.30
2022-11-21T16:04:30.056Z,4.30
2022-11-21T16:06:31.898Z,4.20
2022-11-21T16:08:35.073Z,4.20
2022-11-21T16:10:36.777Z,4.20
2022-11-21T16:12:38.526Z,4.20
2022-11-21T16:14:40.227Z,4.10
2022-11-21T16:16:47.091Z,4.00
2022-11-21T16:18:49.331Z,4.00
2022-11-21T16:20:50.971Z,4.00
2022-11-21T16:22:52.574Z,3.90
2022-11-21T16:24:54.265Z,3.90
2022-11-21T16:26:57.077Z,3.90
2022-11-21T16:28:59.873Z,3.90
2022-11-21T16:31:02.568Z,4.00
2022-11-21T16:33:04.280Z,4.00
2022-11-21T16:35:06.511Z,4.00
2022-11-21T16:37:08.402Z,4.00
2022-11-21T16:39:15.063Z,4.10
2022-11-21T16:41:21.599Z,4.10
2022-11-21T16:43:23.911Z,4.10
2022-11-21T16:45:25.841Z,4.10
2022-11-21T16:47:27.485Z,4.20
2022-11-21T16:49:29.379Z,4.10
2022-11-21T16:51:31.232Z,4.10
2022-11-21T16:53:32.928Z,4.10
2022-11-21T16:55:35.251Z,4.10
2022-11-21T16:57:36.932Z,4.00
2022-11-21T16:59:38.694Z,4.00
2022-11-21T17:01:41.744Z,3.90
2022-11-21T17:03:47.355Z,3.90
2022-11-21T17:05:59.692Z,3.90
2022-11-21T17:08:01.385Z,3.90
2022-11-21T17:10:03.237Z,3.90
2022-11-21T17:12:05.328Z,3.90
2022-11-21T17:14:08.223Z,3.90
2022-11-21T17:16:11.557Z,3.90
2022-11-21T17:18:13.273Z,3.90
2022-11-21T17:20:15.090Z,3.90
2022-11-21T17:22:20.172Z,3.90
2022-11-21T17:24:26.167Z,3.90
2022-11-21T17:26:29.905Z,3.90
2022-11-21T17:28:32.196Z,3.90
2022-11-21T17:30:35.364Z,3.90
2022-11-21T17:32:37.096Z,3.90
2022-11-21T17:34:39.806Z,3.90
2022-11-21T17:36:41.622Z,3.90
2022-11-21T17:38:43.897Z,3.90
2022-11-21T17:40:45.617Z,4.00
2022-11-21T17:42:47.275Z,4.00
2022-11-21T17:44:49.012Z,4.10
2022-11-21T17:46:50.786Z,4.10
2022-11-21T17:48:57.094Z,4.10
2022-11-21T17:51:05.302Z,4.20
2022-11-21T17:53:07.038Z,4.20
2022-11-21T17:55:08.809Z,4.20
2022-11-21T17:57:10.524Z,4.20
2022-11-21T17:59:13.348Z,4.20
2022-11-21T18:01:19.623Z,4.30
2022-11-21T18:03:22.040Z,4.30
2022-11-21T18:05:23.795Z,4.20
2022-11-21T18:07:25.591Z,4.20
2022-11-21T18:09:28.700Z,4.20
2022-11-21T18:11:39.243Z,4.20
2022-11-21T18:13:42.227Z,4.20
2022-11-21T18:15:43.860Z,4.30
2022-11-21T18:17:45.525Z,4.30
2022-11-21T18:19:47.184Z,4.30
2022-11-21T18:21:49.027Z,4.30
2022-11-21T18:23:52.603Z,4.40
2022-11-21T18:25:54.286Z,4.40
2022-11-21T18:27:56.225Z,4.40
2022-11-21T18:29:57.912Z,4.50
2022-11-21T18:31:59.920Z,4.50
2022-11-21T18:34:03.192Z,4.50
2022-11-21T18:36:06.343Z,4.60
2022-11-21T18:38:07.984Z,4.60
2022-11-21T18:40:10.437Z,4.60
2022-11-21T18:42:12.656Z,4.60
2022-11-21T18:44:21.412Z,4.60
2022-11-21T18:46:24.957Z,4.60
2022-11-21T18:48:28.031Z,4.60
2022-11-21T18:50:29.894Z,4.60
2022-11-21T18:52:34.326Z,4.70
2022-11-21T18:54:36.044Z,4.70
2022-11-21T18:56:39.417Z,4.70
2022-11-21T18:58:44.116Z,4.70
2022-11-21T19:00:45.894Z,4.70
2022-11-21T19:02:48.013Z,4.70
2022-11-21T19:04:49.757Z,4.70
2022-11-21T19:06:51.563Z,4.70
2022-11-21T19:08:55.006Z,4.80
2022-11-21T19:10:56.746Z,4.70
2022-11-21T19:12:58.473Z,4.70
2022-11-21T19:15:00.224Z,4.80
2022-11-21T19:17:01.893Z,4.80
2022-11-21T19:21:29.213Z,4.70
2022-11-21T19:23:31.565Z,4.70
2022-11-21T19:25:33.929Z,4.70
2022-11-21T19:27:35.649Z,4.70
2022-11-21T19:29:37.304Z,4.70
2022-11-21T19:31:44.516Z,4.80
2022-11-21T19:33:47.020Z,4.70
2022-11-21T19:35:48.870Z,4.70
2022-11-21T19:37:50.674Z,4.70
2022-11-21T19:39:52.365Z,4.80
2022-11-21T19:41:54.091Z,4.80
2022-11-21T19:43:58.776Z,4.70
2022-11-21T19:46:04.161Z,4.70
2022-11-21T19:48:06.112Z,4.70
2022-11-21T19:50:08.204Z,4.70
2022-11-21T19:52:10.022Z,4.70
2022-11-21T19:54:13.547Z,4.70
2022-11-21T19:56:18.106Z,4.80
2022-11-21T19:58:20.052Z,4.80
2022-11-21T20:00:25.197Z,4.80
2022-11-21T20:02:27.070Z,4.80
2022-11-21T20:04:28.796Z,4.80
2022-11-21T20:06:36.749Z,4.80
2022-11-21T20:08:38.584Z,4.80
2022-11-21T20:10:40.377Z,4.90
2022-11-21T20:12:42.087Z,4.90
2022-11-21T20:14:43.928Z,4.80
2022-11-21T20:16:48.598Z,4.90
2022-11-21T20:18:51.521Z,4.90
2022-11-21T20:20:53.236Z,4.90
2022-11-21T20:22:54.922Z,4.90
2022-11-21T20:24:57.681Z,4.90
2022-11-21T20:26:59.419Z,4.90
2022-11-21T20:29:01.223Z,4.90
2022-11-21T20:31:13.957Z,4.90
2022-11-21T20:33:15.624Z,4.80
2022-11-21T20:35:17.408Z,4.80
2022-11-21T20:37:19.055Z,4.80
2022-11-21T20:39:21.654Z,4.80
2022-11-21T20:41:25.939Z,4.80
2022-11-21T20:43:52.706Z,4.80
2022-11-21T20:46:08.681Z,4.80
2022-11-21T20:48:14.640Z,4.80
2022-11-21T20:50:50.093Z,4.80
2022-11-21T20:53:50.379Z,4.80
2022-11-21T20:55:02.656Z,4.80
2022-11-21T20:57:04.711Z,4.80
2022-11-21T20:59:06.523Z,4.80
2022-11-21T21:01:11.872Z,4.80
2022-11-21T21:03:14.222Z,4.80
2022-11-21T21:05:16.025Z,4.90
2022-11-21T21:07:17.831Z,4.90
2022-11-21T21:09:19.464Z,4.80
2022-11-21T21:13:47.124Z,4.80
2022-11-21T21:15:48.805Z,4.80
2022-11-21T21:17:50.427Z,4.80
2022-11-21T21:19:52.113Z,4.80
2022-11-21T21:21:54.091Z,4.70
2022-11-21T21:24:04.425Z,4.70
2022-11-21T21:26:20.304Z,4.70
2022-11-21T21:28:22.128Z,4.70
2022-11-21T21:30:24.370Z,4.80
2022-11-21T21:32:26.164Z,4.80
2022-11-21T21:34:28.495Z,4.80
2022-11-21T21:36:30.442Z,4.80
2022-11-21T21:38:32.313Z,4.90
2022-11-21T21:40:34.005Z,4.90
2022-11-21T21:42:35.809Z,4.90
2022-11-21T21:44:38.072Z,5.00
2022-11-21T21:46:40.082Z,5.00
2022-11-21T21:48:43.104Z,5.00
2022-11-21T21:50:45.276Z,5.00
2022-11-21T21:52:46.957Z,5.00
2022-11-21T21:54:48.932Z,5.00
2022-11-21T21:56:50.651Z,5.00
2022-11-21T21:58:52.408Z,4.90
2022-11-21T22:01:01.264Z,5.00
2022-11-21T22:03:03.000Z,5.00
2022-11-21T22:05:05.395Z,5.00
2022-11-21T22:07:08.652Z,5.00
2022-11-21T22:09:10.675Z,5.00
2022-11-21T22:11:15.186Z,4.90
2022-11-21T22:13:16.922Z,4.80
2022-11-21T22:15:18.692Z,4.90
2022-11-21T22:17:20.416Z,4.90
2022-11-21T22:19:22.237Z,4.90
2022-11-21T22:21:32.471Z,4.90
2022-11-21T22:23:34.252Z,4.90
2022-11-21T22:25:35.915Z,4.90
2022-11-21T22:27:37.665Z,4.90
2022-11-21T22:29:39.361Z,4.90
2022-11-21T22:31:41.015Z,4.90
2022-11-21T22:33:43.961Z,4.90
2022-11-21T22:35:45.609Z,4.90
2022-11-21T22:37:50.050Z,4.90
2022-11-21T22:39:51.704Z,5.00
2022-11-21T22:41:58.421Z,5.00
2022-11-21T22:44:01.447Z,5.00
2022-11-21T22:46:03.919Z,5.00
2022-11-21T22:48:05.879Z,4.90
2022-11-21T22:50:08.845Z,4.90
2022-11-21T22:52:10.653Z,4.80
2022-11-21T22:54:13.032Z,4.80
2022-11-21T22:56:17.624Z,4.80
2022-11-21T22:58:19.265Z,4.70
2022-11-21T23:00:21.012Z,4.60
2022-11-21T23:02:22.865Z,4.50
2022-11-21T23:04:24.667Z,4.50
2022-11-21T23:06:27.186Z,4.40
2022-11-21T23:08:30.118Z,4.50
2022-11-21T23:10:31.834Z,4.50
2022-11-21T23:12:33.614Z,4.50
2022-11-21T23:14:35.291Z,4.50
2022-11-21T23:16:37.039Z,4.50
2022-11-21T23:18:39.543Z,4.50
2022-11-21T23:20:43.343Z,4.40
2022-11-21T23:22:45.190Z,4.40
2022-11-21T23:24:46.880Z,4.30
2022-11-21T23:26:48.599Z,4.30
2022-11-21T23:28:50.225Z,4.30
2022-11-21T23:30:52.055Z,4.20
2022-11-21T23:32:53.767Z,4.20
2022-11-21T23:34:55.395Z,4.10
2022-11-21T23:36:57.241Z,4.10
2022-11-21T23:38:58.903Z,4.10
2022-11-21T23:41:00.778Z,4.10
2022-11-21T23:43:02.545Z,4.10
2022-11-21T23:45:04.682Z,4.00
2022-11-21T23:47:06.348Z,4.10
2022-11-21T23:49:08.048Z,4.10
2022-11-21T23:51:09.735Z,4.00
2022-11-21T23:53:11.426Z,4.00
2022-11-21T23:55:13.081Z,4.00
2022-11-21T23:57:14.728Z,4.00
2022-11-21T23:59:16.459Z,4.00
